sensor_id;sensor_type;location;lat;lon;timestamp;P1;durP1;ratioP1;P2;durP2;ratioP2
22963;SDS011;11648;49.306;6.934;2022-09-17T00:02:00;3.43;;;1.07;;
22963;SDS011;11648;49.306;6.934;2022-09-17T00:04:33;4.00;;;0.80;;
22963;SDS011;11648;49.306;6.934;2022-09-17T00:07:00;4.17;;;0.90;;
22963;SDS011;11648;49.306;6.934;2022-09-17T00:09:29;2.00;;;0.80;;
22963;SDS011;11648;49.306;6.934;2022-09-17T00:11:56;3.40;;;0.83;;
22963;SDS011;11648;49.306;6.934;2022-09-17T00:14:29;4.27;;;1.00;;
22963;SDS011;11648;49.306;6.934;2022-09-17T00:16:57;2.93;;;0.80;;
22963;SDS011;11648;49.306;6.934;2022-09-17T00:19:27;3.70;;;0.93;;
22963;SDS011;11648;49.306;6.934;2022-09-17T00:22:03;4.87;;;1.10;;
22963;SDS011;11648;49.306;6.934;2022-09-17T00:24:32;3.43;;;0.83;;
22963;SDS011;11648;49.306;6.934;2022-09-17T00:27:00;2.50;;;0.83;;
22963;SDS011;11648;49.306;6.934;2022-09-17T00:29:29;6.07;;;1.00;;
22963;SDS011;11648;49.306;6.934;2022-09-17T00:31:56;1.93;;;0.77;;
22963;SDS011;11648;49.306;6.934;2022-09-17T00:34:26;2.20;;;1.10;;
22963;SDS011;11648;49.306;6.934;2022-09-17T00:36:53;5.60;;;1.13;;
22963;SDS011;11648;49.306;6.934;2022-09-17T00:39:28;3.40;;;1.17;;
22963;SDS011;11648;49.306;6.934;2022-09-17T00:42:00;3.13;;;1.10;;
22963;SDS011;11648;49.306;6.934;2022-09-17T00:50:06;4.03;;;1.20;;
22963;SDS011;11648;49.306;6.934;2022-09-17T00:52:35;4.27;;;1.27;;
22963;SDS011;11648;49.306;6.934;2022-09-17T00:55:13;6.90;;;1.20;;
22963;SDS011;11648;49.306;6.934;2022-09-17T00:57:50;3.43;;;1.20;;
22963;SDS011;11648;49.306;6.934;2022-09-17T01:00:23;3.37;;;1.30;;
22963;SDS011;11648;49.306;6.934;2022-09-17T01:02:52;3.80;;;1.13;;
22963;SDS011;11648;49.306;6.934;2022-09-17T01:05:25;3.80;;;1.33;;
22963;SDS011;11648;49.306;6.934;2022-09-17T01:08:04;4.90;;;1.40;;
22963;SDS011;11648;49.306;6.934;2022-09-17T01:16:25;3.27;;;1.10;;
22963;SDS011;11648;49.306;6.934;2022-09-17T01:29:34;2.43;;;1.40;;
22963;SDS011;11648;49.306;6.934;2022-09-17T01:35:23;3.57;;;1.47;;
22963;SDS011;11648;49.306;6.934;2022-09-17T01:44:00;3.43;;;1.27;;
22963;SDS011;11648;49.306;6.934;2022-09-17T01:46:39;8.47;;;1.93;;
22963;SDS011;11648;49.306;6.934;2022-09-17T01:49:21;4.33;;;1.80;;
22963;SDS011;11648;49.306;6.934;2022-09-17T01:52:06;4.67;;;1.60;;
22963;SDS011;11648;49.306;6.934;2022-09-17T01:54:41;2.10;;;1.30;;
22963;SDS011;11648;49.306;6.934;2022-09-17T01:57:33;3.63;;;1.60;;
22963;SDS011;11648;49.306;6.934;2022-09-17T02:00:08;3.23;;;1.40;;
22963;SDS011;11648;49.306;6.934;2022-09-17T02:03:01;4.23;;;1.83;;
22963;SDS011;11648;49.306;6.934;2022-09-17T02:05:42;3.40;;;1.57;;
22963;SDS011;11648;49.306;6.934;2022-09-17T02:08:23;5.63;;;1.93;;
22963;SDS011;11648;49.306;6.934;2022-09-17T02:10:56;4.73;;;2.10;;
22963;SDS011;11648;49.306;6.934;2022-09-17T02:13:46;6.33;;;2.20;;
22963;SDS011;11648;49.306;6.934;2022-09-17T02:16:32;4.83;;;2.10;;
22963;SDS011;11648;49.306;6.934;2022-09-17T02:19:24;5.67;;;2.17;;
22963;SDS011;11648;49.306;6.934;2022-09-17T02:24:51;4.10;;;1.90;;
22963;SDS011;11648;49.306;6.934;2022-09-17T02:30:14;7.87;;;2.10;;
22963;SDS011;11648;49.306;6.934;2022-09-17T02:32:41;5.30;;;2.17;;
22963;SDS011;11648;49.306;6.934;2022-09-17T02:35:11;6.40;;;2.40;;
22963;SDS011;11648;49.306;6.934;2022-09-17T02:37:41;4.27;;;2.17;;
22963;SDS011;11648;49.306;6.934;2022-09-17T02:40:10;5.57;;;2.13;;
22963;SDS011;11648;49.306;6.934;2022-09-17T02:45:25;4.33;;;2.17;;
22963;SDS011;11648;49.306;6.934;2022-09-17T02:51:12;5.10;;;2.30;;
22963;SDS011;11648;49.306;6.934;2022-09-17T02:54:08;4.43;;;2.30;;
22963;SDS011;11648;49.306;6.934;2022-09-17T02:59:42;3.87;;;2.23;;
22963;SDS011;11648;49.306;6.934;2022-09-17T03:02:34;4.77;;;2.40;;
22963;SDS011;11648;49.306;6.934;2022-09-17T03:05:23;4.10;;;2.07;;
22963;SDS011;11648;49.306;6.934;2022-09-17T03:07:55;6.20;;;2.23;;
22963;SDS011;11648;49.306;6.934;2022-09-17T03:10:25;4.63;;;2.40;;
22963;SDS011;11648;49.306;6.934;2022-09-17T03:13:03;6.80;;;2.33;;
22963;SDS011;11648;49.306;6.934;2022-09-17T03:15:31;5.27;;;2.53;;
22963;SDS011;11648;49.306;6.934;2022-09-17T03:18:01;4.80;;;2.30;;
22963;SDS011;11648;49.306;6.934;2022-09-17T03:20:34;3.37;;;1.83;;
22963;SDS011;11648;49.306;6.934;2022-09-17T03:23:02;5.97;;;2.20;;
22963;SDS011;11648;49.306;6.934;2022-09-17T03:25:30;5.37;;;2.27;;
22963;SDS011;11648;49.306;6.934;2022-09-17T03:28:10;7.43;;;2.73;;
22963;SDS011;11648;49.306;6.934;2022-09-17T03:30:41;6.30;;;2.60;;
22963;SDS011;11648;49.306;6.934;2022-09-17T03:33:21;6.17;;;2.43;;
22963;SDS011;11648;49.306;6.934;2022-09-17T03:35:49;5.97;;;2.70;;
22963;SDS011;11648;49.306;6.934;2022-09-17T03:38:16;7.00;;;2.70;;
22963;SDS011;11648;49.306;6.934;2022-09-17T03:40:55;7.00;;;3.20;;
22963;SDS011;11648;49.306;6.934;2022-09-17T03:43:32;5.93;;;2.60;;
22963;SDS011;11648;49.306;6.934;2022-09-17T03:46:00;6.70;;;2.73;;
22963;SDS011;11648;49.306;6.934;2022-09-17T03:48:32;4.30;;;2.13;;
22963;SDS011;11648;49.306;6.934;2022-09-17T03:51:03;5.80;;;1.97;;
22963;SDS011;11648;49.306;6.934;2022-09-17T03:53:34;5.70;;;2.07;;
22963;SDS011;11648;49.306;6.934;2022-09-17T03:56:02;4.17;;;1.83;;
22963;SDS011;11648;49.306;6.934;2022-09-17T03:58:32;5.97;;;1.80;;
22963;SDS011;11648;49.306;6.934;2022-09-17T04:00:59;3.37;;;1.53;;
22963;SDS011;11648;49.306;6.934;2022-09-17T04:03:33;7.83;;;2.00;;
22963;SDS011;11648;49.306;6.934;2022-09-17T04:06:01;4.30;;;1.77;;
22963;SDS011;11648;49.306;6.934;2022-09-17T04:08:38;3.27;;;1.67;;
22963;SDS011;11648;49.306;6.934;2022-09-17T04:11:10;10.43;;;2.20;;
22963;SDS011;11648;49.306;6.934;2022-09-17T04:13:44;5.67;;;1.83;;
22963;SDS011;11648;49.306;6.934;2022-09-17T04:16:13;6.87;;;1.60;;
22963;SDS011;11648;49.306;6.934;2022-09-17T04:18:48;3.33;;;1.23;;
22963;SDS011;11648;49.306;6.934;2022-09-17T04:21:14;5.60;;;1.50;;
22963;SDS011;11648;49.306;6.934;2022-09-17T04:23:42;5.40;;;1.90;;
22963;SDS011;11648;49.306;6.934;2022-09-17T04:26:10;4.83;;;1.63;;
22963;SDS011;11648;49.306;6.934;2022-09-17T04:28:36;4.60;;;1.30;;
22963;SDS011;11648;49.306;6.934;2022-09-17T04:31:06;5.73;;;1.60;;
22963;SDS011;11648;49.306;6.934;2022-09-17T04:33:33;7.33;;;1.70;;
22963;SDS011;11648;49.306;6.934;2022-09-17T04:36:00;2.93;;;1.40;;
22963;SDS011;11648;49.306;6.934;2022-09-17T04:38:26;4.23;;;2.07;;
22963;SDS011;11648;49.306;6.934;2022-09-17T04:40:53;3.23;;;1.70;;
22963;SDS011;11648;49.306;6.934;2022-09-17T04:43:22;4.93;;;1.63;;
22963;SDS011;11648;49.306;6.934;2022-09-17T04:45:49;4.00;;;1.40;;
22963;SDS011;11648;49.306;6.934;2022-09-17T04:48:17;2.40;;;1.50;;
22963;SDS011;11648;49.306;6.934;2022-09-17T04:50:43;5.17;;;1.70;;
22963;SDS011;11648;49.306;6.934;2022-09-17T04:53:10;5.33;;;1.57;;
22963;SDS011;11648;49.306;6.934;2022-09-17T04:55:37;4.57;;;1.30;;
22963;SDS011;11648;49.306;6.934;2022-09-17T04:58:04;4.03;;;1.23;;
22963;SDS011;11648;49.306;6.934;2022-09-17T05:00:31;7.03;;;1.43;;
22963;SDS011;11648;49.306;6.934;2022-09-17T05:02:59;6.27;;;1.50;;
22963;SDS011;11648;49.306;6.934;2022-09-17T05:05:26;4.73;;;1.73;;
22963;SDS011;11648;49.306;6.934;2022-09-17T05:07:52;4.13;;;1.40;;
22963;SDS011;11648;49.306;6.934;2022-09-17T05:10:20;5.97;;;1.57;;
22963;SDS011;11648;49.306;6.934;2022-09-17T05:12:52;4.20;;;1.40;;
22963;SDS011;11648;49.306;6.934;2022-09-17T05:15:20;5.93;;;1.37;;
22963;SDS011;11648;49.306;6.934;2022-09-17T05:17:48;3.83;;;1.40;;
22963;SDS011;11648;49.306;6.934;2022-09-17T05:20:16;7.83;;;1.37;;
22963;SDS011;11648;49.306;6.934;2022-09-17T05:22:43;6.87;;;1.63;;
22963;SDS011;11648;49.306;6.934;2022-09-17T05:25:12;5.60;;;1.87;;
22963;SDS011;11648;49.306;6.934;2022-09-17T05:27:40;5.97;;;1.70;;
22963;SDS011;11648;49.306;6.934;2022-09-17T05:30:07;4.67;;;1.50;;
22963;SDS011;11648;49.306;6.934;2022-09-17T05:32:35;5.00;;;1.70;;
22963;SDS011;11648;49.306;6.934;2022-09-17T05:35:02;2.80;;;1.33;;
22963;SDS011;11648;49.306;6.934;2022-09-17T05:37:31;5.00;;;1.60;;
22963;SDS011;11648;49.306;6.934;2022-09-17T05:39:58;6.37;;;1.60;;
22963;SDS011;11648;49.306;6.934;2022-09-17T05:42:25;4.13;;;1.80;;
22963;SDS011;11648;49.306;6.934;2022-09-17T05:44:52;7.07;;;1.87;;
22963;SDS011;11648;49.306;6.934;2022-09-17T05:47:18;5.53;;;2.00;;
22963;SDS011;11648;49.306;6.934;2022-09-17T05:49:45;6.07;;;1.90;;
22963;SDS011;11648;49.306;6.934;2022-09-17T05:52:12;4.80;;;1.70;;
22963;SDS011;11648;49.306;6.934;2022-09-17T05:54:39;8.40;;;1.90;;
22963;SDS011;11648;49.306;6.934;2022-09-17T05:57:05;7.13;;;1.73;;
22963;SDS011;11648;49.306;6.934;2022-09-17T05:59:32;5.33;;;1.80;;
22963;SDS011;11648;49.306;6.934;2022-09-17T06:02:00;5.00;;;1.63;;
22963;SDS011;11648;49.306;6.934;2022-09-17T06:04:27;3.53;;;1.47;;
22963;SDS011;11648;49.306;6.934;2022-09-17T06:07:02;3.40;;;1.67;;
22963;SDS011;11648;49.306;6.934;2022-09-17T06:09:30;4.03;;;1.70;;
22963;SDS011;11648;49.306;6.934;2022-09-17T06:11:57;5.17;;;1.93;;
22963;SDS011;11648;49.306;6.934;2022-09-17T06:14:23;5.70;;;1.90;;
22963;SDS011;11648;49.306;6.934;2022-09-17T06:16:50;3.87;;;1.70;;
22963;SDS011;11648;49.306;6.934;2022-09-17T06:19:17;5.17;;;1.73;;
22963;SDS011;11648;49.306;6.934;2022-09-17T06:21:45;5.10;;;1.97;;
22963;SDS011;11648;49.306;6.934;2022-09-17T06:24:12;5.73;;;1.80;;
22963;SDS011;11648;49.306;6.934;2022-09-17T06:26:39;6.67;;;1.80;;
22963;SDS011;11648;49.306;6.934;2022-09-17T06:29:06;5.00;;;2.00;;
22963;SDS011;11648;49.306;6.934;2022-09-17T06:31:32;3.87;;;1.37;;
22963;SDS011;11648;49.306;6.934;2022-09-17T06:33:59;4.93;;;1.60;;
22963;SDS011;11648;49.306;6.934;2022-09-17T06:36:27;6.23;;;1.93;;
22963;SDS011;11648;49.306;6.934;2022-09-17T06:38:53;4.73;;;1.70;;
22963;SDS011;11648;49.306;6.934;2022-09-17T06:41:20;4.43;;;1.40;;
22963;SDS011;11648;49.306;6.934;2022-09-17T06:43:47;4.00;;;1.67;;
22963;SDS011;11648;49.306;6.934;2022-09-17T06:46:17;4.23;;;1.50;;
22963;SDS011;11648;49.306;6.934;2022-09-17T06:48:44;8.60;;;1.67;;
22963;SDS011;11648;49.306;6.934;2022-09-17T06:51:11;4.67;;;1.33;;
22963;SDS011;11648;49.306;6.934;2022-09-17T06:53:38;3.47;;;1.30;;
22963;SDS011;11648;49.306;6.934;2022-09-17T06:56:06;3.90;;;1.47;;
22963;SDS011;11648;49.306;6.934;2022-09-17T06:58:35;6.77;;;1.90;;
22963;SDS011;11648;49.306;6.934;2022-09-17T07:01:03;5.70;;;2.00;;
22963;SDS011;11648;49.306;6.934;2022-09-17T07:03:31;4.80;;;1.53;;
22963;SDS011;11648;49.306;6.934;2022-09-17T07:05:58;4.80;;;1.50;;
22963;SDS011;11648;49.306;6.934;2022-09-17T07:08:25;3.73;;;1.40;;
22963;SDS011;11648;49.306;6.934;2022-09-17T07:10:55;6.70;;;1.67;;
22963;SDS011;11648;49.306;6.934;2022-09-17T07:13:23;3.97;;;1.13;;
22963;SDS011;11648;49.306;6.934;2022-09-17T07:15:51;5.90;;;1.53;;
22963;SDS011;11648;49.306;6.934;2022-09-17T07:18:22;5.07;;;1.23;;
22963;SDS011;11648;49.306;6.934;2022-09-17T07:20:56;5.93;;;1.60;;
22963;SDS011;11648;49.306;6.934;2022-09-17T07:23:25;3.97;;;1.57;;
22963;SDS011;11648;49.306;6.934;2022-09-17T07:25:54;4.60;;;1.67;;
22963;SDS011;11648;49.306;6.934;2022-09-17T07:28:23;8.13;;;1.93;;
22963;SDS011;11648;49.306;6.934;2022-09-17T07:30:50;6.17;;;1.30;;
22963;SDS011;11648;49.306;6.934;2022-09-17T07:33:19;5.13;;;1.40;;
22963;SDS011;11648;49.306;6.934;2022-09-17T07:38:20;6.07;;;1.53;;
22963;SDS011;11648;49.306;6.934;2022-09-17T07:43:21;5.47;;;1.83;;
22963;SDS011;11648;49.306;6.934;2022-09-17T07:45:47;7.40;;;1.63;;
22963;SDS011;11648;49.306;6.934;2022-09-17T07:48:14;3.97;;;1.30;;
22963;SDS011;11648;49.306;6.934;2022-09-17T07:50:41;8.20;;;1.33;;
22963;SDS011;11648;49.306;6.934;2022-09-17T07:53:09;4.53;;;1.30;;
22963;SDS011;11648;49.306;6.934;2022-09-17T07:55:35;5.63;;;1.53;;
22963;SDS011;11648;49.306;6.934;2022-09-17T07:58:02;4.10;;;1.37;;
22963;SDS011;11648;49.306;6.934;2022-09-17T08:00:29;4.27;;;1.10;;
22963;SDS011;11648;49.306;6.934;2022-09-17T08:02:55;4.20;;;1.07;;
22963;SDS011;11648;49.306;6.934;2022-09-17T08:05:23;3.87;;;1.00;;
22963;SDS011;11648;49.306;6.934;2022-09-17T08:07:51;6.73;;;1.27;;
22963;SDS011;11648;49.306;6.934;2022-09-17T08:10:18;3.47;;;1.10;;
22963;SDS011;11648;49.306;6.934;2022-09-17T08:12:48;3.97;;;1.10;;
22963;SDS011;11648;49.306;6.934;2022-09-17T08:15:15;4.17;;;1.00;;
22963;SDS011;11648;49.306;6.934;2022-09-17T08:17:43;3.27;;;1.13;;
22963;SDS011;11648;49.306;6.934;2022-09-17T08:20:11;4.13;;;1.30;;
22963;SDS011;11648;49.306;6.934;2022-09-17T08:22:39;4.03;;;1.20;;
22963;SDS011;11648;49.306;6.934;2022-09-17T08:25:06;3.87;;;1.30;;
22963;SDS011;11648;49.306;6.934;2022-09-17T08:27:33;6.20;;;1.23;;
22963;SDS011;11648;49.306;6.934;2022-09-17T08:30:00;4.47;;;1.13;;
22963;SDS011;11648;49.306;6.934;2022-09-17T08:32:28;4.87;;;1.30;;
22963;SDS011;11648;49.306;6.934;2022-09-17T08:34:55;5.00;;;1.60;;
22963;SDS011;11648;49.306;6.934;2022-09-17T08:37:24;5.35;;;2.00;;
22963;SDS011;11648;49.306;6.934;2022-09-17T08:39:51;3.40;;;1.40;;
22963;SDS011;11648;49.306;6.934;2022-09-17T08:45:14;5.03;;;1.00;;
22963;SDS011;11648;49.306;6.934;2022-09-17T08:47:44;3.73;;;1.10;;
22963;SDS011;11648;49.306;6.934;2022-09-17T08:50:34;3.63;;;1.00;;
22963;SDS011;11648;49.306;6.934;2022-09-17T08:56:12;3.10;;;0.83;;
22963;SDS011;11648;49.306;6.934;2022-09-17T09:01:23;3.57;;;0.90;;
22963;SDS011;11648;49.306;6.934;2022-09-17T09:04:02;4.73;;;1.13;;
22963;SDS011;11648;49.306;6.934;2022-09-17T09:06:49;4.67;;;1.17;;
22963;SDS011;11648;49.306;6.934;2022-09-17T09:09:21;4.07;;;1.00;;
22963;SDS011;11648;49.306;6.934;2022-09-17T09:11:53;4.33;;;0.90;;
22963;SDS011;11648;49.306;6.934;2022-09-17T09:14:30;3.83;;;1.07;;
22963;SDS011;11648;49.306;6.934;2022-09-17T09:17:20;2.83;;;0.97;;
22963;SDS011;11648;49.306;6.934;2022-09-17T09:19:51;4.80;;;0.90;;
22963;SDS011;11648;49.306;6.934;2022-09-17T09:25:23;2.97;;;0.77;;
22963;SDS011;11648;49.306;6.934;2022-09-17T09:33:25;5.83;;;0.90;;
22963;SDS011;11648;49.306;6.934;2022-09-17T09:35:56;3.13;;;1.00;;
22963;SDS011;11648;49.306;6.934;2022-09-17T09:38:42;5.50;;;0.87;;
22963;SDS011;11648;49.306;6.934;2022-09-17T09:41:21;3.47;;;0.90;;
22963;SDS011;11648;49.306;6.934;2022-09-17T09:44:02;7.27;;;1.10;;
22963;SDS011;11648;49.306;6.934;2022-09-17T10:00:51;5.90;;;1.57;;
22963;SDS011;11648;49.306;6.934;2022-09-17T10:03:36;4.77;;;1.00;;
22963;SDS011;11648;49.306;6.934;2022-09-17T10:06:08;4.53;;;1.03;;
22963;SDS011;11648;49.306;6.934;2022-09-17T10:08:37;7.47;;;1.27;;
22963;SDS011;11648;49.306;6.934;2022-09-17T10:11:27;4.00;;;1.00;;
22963;SDS011;11648;49.306;6.934;2022-09-17T10:17:25;4.90;;;1.27;;
22963;SDS011;11648;49.306;6.934;2022-09-17T10:22:27;6.03;;;1.33;;
22963;SDS011;11648;49.306;6.934;2022-09-17T10:24:57;4.63;;;1.37;;
22963;SDS011;11648;49.306;6.934;2022-09-17T10:27:26;6.07;;;1.27;;
22963;SDS011;11648;49.306;6.934;2022-09-17T10:32:33;7.63;;;1.20;;
22963;SDS011;11648;49.306;6.934;2022-09-17T10:37:40;4.27;;;1.20;;
22963;SDS011;11648;49.306;6.934;2022-09-17T10:40:41;6.70;;;1.20;;
22963;SDS011;11648;49.306;6.934;2022-09-17T10:43:14;5.90;;;1.40;;
22963;SDS011;11648;49.306;6.934;2022-09-17T10:45:44;5.90;;;1.57;;
22963;SDS011;11648;49.306;6.934;2022-09-17T10:48:21;7.50;;;1.30;;
22963;SDS011;11648;49.306;6.934;2022-09-17T10:50:49;4.90;;;1.07;;
22963;SDS011;11648;49.306;6.934;2022-09-17T10:53:19;6.60;;;1.20;;
22963;SDS011;11648;49.306;6.934;2022-09-17T10:55:50;6.63;;;1.50;;
22963;SDS011;11648;49.306;6.934;2022-09-17T11:15:05;4.00;;;1.13;;
22963;SDS011;11648;49.306;6.934;2022-09-17T11:18:06;4.40;;;1.00;;
22963;SDS011;11648;49.306;6.934;2022-09-17T11:23:47;5.93;;;1.23;;
22963;SDS011;11648;49.306;6.934;2022-09-17T11:32:05;5.53;;;1.00;;
22963;SDS011;11648;49.306;6.934;2022-09-17T11:34:42;5.67;;;1.17;;
22963;SDS011;11648;49.306;6.934;2022-09-17T11:40:12;5.80;;;1.30;;
22963;SDS011;11648;49.306;6.934;2022-09-17T11:42:58;6.40;;;1.57;;
22963;SDS011;11648;49.306;6.934;2022-09-17T11:45:38;4.57;;;1.00;;
22963;SDS011;11648;49.306;6.934;2022-09-17T11:48:16;5.13;;;1.37;;
22963;SDS011;11648;49.306;6.934;2022-09-17T11:50:49;5.07;;;1.20;;
22963;SDS011;11648;49.306;6.934;2022-09-17T12:01:39;4.67;;;1.27;;
22963;SDS011;11648;49.306;6.934;2022-09-17T12:07:26;4.97;;;1.30;;
22963;SDS011;11648;49.306;6.934;2022-09-17T12:12:58;5.57;;;1.48;;
22963;SDS011;11648;49.306;6.934;2022-09-17T12:15:29;2.78;;;1.00;;
22963;SDS011;11648;49.306;6.934;2022-09-17T12:20:59;4.97;;;1.20;;
22963;SDS011;11648;49.306;6.934;2022-09-17T12:23:38;4.47;;;1.15;;
22963;SDS011;11648;49.306;6.934;2022-09-17T12:28:49;4.05;;;1.20;;
22963;SDS011;11648;49.306;6.934;2022-09-17T12:34:31;5.32;;;1.10;;
22963;SDS011;11648;49.306;6.934;2022-09-17T12:39:45;4.43;;;1.00;;
22963;SDS011;11648;49.306;6.934;2022-09-17T12:45:34;4.63;;;1.00;;
22963;SDS011;11648;49.306;6.934;2022-09-17T12:53:56;3.37;;;0.90;;
22963;SDS011;11648;49.306;6.934;2022-09-17T12:59:13;5.03;;;0.90;;
22963;SDS011;11648;49.306;6.934;2022-09-17T13:02:01;5.20;;;1.00;;
22963;SDS011;11648;49.306;6.934;2022-09-17T13:13:10;2.33;;;0.63;;
22963;SDS011;11648;49.306;6.934;2022-09-17T13:15:50;4.37;;;0.70;;
22963;SDS011;11648;49.306;6.934;2022-09-17T13:18:25;2.70;;;0.63;;
22963;SDS011;11648;49.306;6.934;2022-09-17T13:20:58;3.53;;;0.80;;
22963;SDS011;11648;49.306;6.934;2022-09-17T13:23:39;4.43;;;0.70;;
22963;SDS011;11648;49.306;6.934;2022-09-17T13:26:09;3.13;;;0.70;;
22963;SDS011;11648;49.306;6.934;2022-09-17T13:28:45;3.33;;;0.87;;
22963;SDS011;11648;49.306;6.934;2022-09-17T13:31:47;6.97;;;0.97;;
22963;SDS011;11648;49.306;6.934;2022-09-17T13:42:20;2.57;;;0.60;;
22963;SDS011;11648;49.306;6.934;2022-09-17T13:45:06;2.37;;;0.60;;
22963;SDS011;11648;49.306;6.934;2022-09-17T13:50:27;3.07;;;0.60;;
22963;SDS011;11648;49.306;6.934;2022-09-17T13:52:58;2.53;;;0.40;;
22963;SDS011;11648;49.306;6.934;2022-09-17T13:55:40;2.60;;;0.43;;
22963;SDS011;11648;49.306;6.934;2022-09-17T14:24:34;3.00;;;0.60;;
22963;SDS011;11648;49.306;6.934;2022-09-17T14:37:48;0.87;;;0.40;;
22963;SDS011;11648;49.306;6.934;2022-09-17T14:40:23;1.23;;;0.20;;
22963;SDS011;11648;49.306;6.934;2022-09-17T14:42:52;1.57;;;0.30;;
22963;SDS011;11648;49.306;6.934;2022-09-17T14:45:32;1.27;;;0.30;;
22963;SDS011;11648;49.306;6.934;2022-09-17T14:48:16;0.90;;;0.40;;
22963;SDS011;11648;49.306;6.934;2022-09-17T14:51:09;1.93;;;0.40;;
22963;SDS011;11648;49.306;6.934;2022-09-17T14:53:37;1.37;;;0.30;;
22963;SDS011;11648;49.306;6.934;2022-09-17T14:56:03;1.30;;;0.30;;
22963;SDS011;11648;49.306;6.934;2022-09-17T14:58:31;1.87;;;0.30;;
22963;SDS011;11648;49.306;6.934;2022-09-17T15:01:02;1.40;;;0.30;;
22963;SDS011;11648;49.306;6.934;2022-09-17T15:03:28;1.97;;;0.40;;
22963;SDS011;11648;49.306;6.934;2022-09-17T15:05:55;1.03;;;0.30;;
22963;SDS011;11648;49.306;6.934;2022-09-17T15:08:23;1.17;;;0.40;;
22963;SDS011;11648;49.306;6.934;2022-09-17T15:13:35;3.03;;;0.40;;
22963;SDS011;11648;49.306;6.934;2022-09-17T15:16:26;1.53;;;0.30;;
22963;SDS011;11648;49.306;6.934;2022-09-17T15:18:59;4.10;;;0.73;;
22963;SDS011;11648;49.306;6.934;2022-09-17T15:27:18;3.13;;;0.53;;
22963;SDS011;11648;49.306;6.934;2022-09-17T15:29:48;6.00;;;0.40;;
22963;SDS011;11648;49.306;6.934;2022-09-17T15:32:19;8.77;;;0.70;;
22963;SDS011;11648;49.306;6.934;2022-09-17T15:35:03;3.20;;;0.43;;
22963;SDS011;11648;49.306;6.934;2022-09-17T15:37:47;4.10;;;0.60;;
22963;SDS011;11648;49.306;6.934;2022-09-17T15:40:41;2.63;;;0.50;;
22963;SDS011;11648;49.306;6.934;2022-09-17T15:45:52;2.57;;;0.50;;
22963;SDS011;11648;49.306;6.934;2022-09-17T15:50:50;2.43;;;0.50;;
22963;SDS011;11648;49.306;6.934;2022-09-17T15:53:25;1.60;;;0.50;;
22963;SDS011;11648;49.306;6.934;2022-09-17T16:06:51;1.73;;;0.40;;
22963;SDS011;11648;49.306;6.934;2022-09-17T16:08:53;0.60;;;0.23;;
22963;SDS011;11648;49.306;6.934;2022-09-17T16:11:26;0.80;;;0.30;;
22963;SDS011;11648;49.306;6.934;2022-09-17T16:13:58;1.80;;;0.30;;
22963;SDS011;11648;49.306;6.934;2022-09-17T16:16:33;2.27;;;0.50;;
22963;SDS011;11648;49.306;6.934;2022-09-17T16:19:05;2.50;;;0.70;;
22963;SDS011;11648;49.306;6.934;2022-09-17T16:21:31;2.17;;;0.90;;
22963;SDS011;11648;49.306;6.934;2022-09-17T16:23:59;4.90;;;1.30;;
22963;SDS011;11648;49.306;6.934;2022-09-17T16:26:27;3.13;;;1.00;;
22963;SDS011;11648;49.306;6.934;2022-09-17T16:29:03;1.97;;;0.73;;
22963;SDS011;11648;49.306;6.934;2022-09-17T16:31:32;2.47;;;0.57;;
22963;SDS011;11648;49.306;6.934;2022-09-17T16:33:59;1.27;;;0.40;;
22963;SDS011;11648;49.306;6.934;2022-09-17T16:36:27;3.63;;;0.50;;
22963;SDS011;11648;49.306;6.934;2022-09-17T16:38:56;1.80;;;0.70;;
22963;SDS011;11648;49.306;6.934;2022-09-17T16:41:24;1.47;;;0.40;;
22963;SDS011;11648;49.306;6.934;2022-09-17T16:43:51;3.00;;;0.50;;
22963;SDS011;11648;49.306;6.934;2022-09-17T16:46:18;3.37;;;0.63;;
22963;SDS011;11648;49.306;6.934;2022-09-17T16:48:48;2.17;;;0.50;;
22963;SDS011;11648;49.306;6.934;2022-09-17T16:51:15;3.20;;;0.60;;
22963;SDS011;11648;49.306;6.934;2022-09-17T16:53:42;3.33;;;0.70;;
22963;SDS011;11648;49.306;6.934;2022-09-17T16:56:09;3.03;;;0.70;;
22963;SDS011;11648;49.306;6.934;2022-09-17T16:58:38;4.73;;;0.70;;
22963;SDS011;11648;49.306;6.934;2022-09-17T17:03:34;1.77;;;0.50;;
22963;SDS011;11648;49.306;6.934;2022-09-17T17:06:01;5.57;;;0.80;;
22963;SDS011;11648;49.306;6.934;2022-09-17T17:08:29;3.37;;;0.77;;
22963;SDS011;11648;49.306;6.934;2022-09-17T17:10:57;4.37;;;0.80;;
22963;SDS011;11648;49.306;6.934;2022-09-17T17:13:24;3.27;;;0.57;;
22963;SDS011;11648;49.306;6.934;2022-09-17T17:15:53;2.47;;;0.80;;
22963;SDS011;11648;49.306;6.934;2022-09-17T17:18:20;3.03;;;0.70;;
22963;SDS011;11648;49.306;6.934;2022-09-17T17:20:47;3.97;;;0.90;;
22963;SDS011;11648;49.306;6.934;2022-09-17T17:23:14;3.33;;;0.60;;
22963;SDS011;11648;49.306;6.934;2022-09-17T17:25:42;2.70;;;0.60;;
22963;SDS011;11648;49.306;6.934;2022-09-17T17:28:08;3.10;;;0.57;;
22963;SDS011;11648;49.306;6.934;2022-09-17T17:30:36;5.00;;;1.00;;
22963;SDS011;11648;49.306;6.934;2022-09-17T17:33:03;2.20;;;0.80;;
22963;SDS011;11648;49.306;6.934;2022-09-17T17:35:30;2.57;;;0.80;;
22963;SDS011;11648;49.306;6.934;2022-09-17T17:37:57;1.50;;;0.60;;
22963;SDS011;11648;49.306;6.934;2022-09-17T17:40:24;2.90;;;0.70;;
22963;SDS011;11648;49.306;6.934;2022-09-17T17:42:52;3.30;;;1.20;;
22963;SDS011;11648;49.306;6.934;2022-09-17T17:45:19;3.67;;;0.70;;
22963;SDS011;11648;49.306;6.934;2022-09-17T17:47:47;3.83;;;0.70;;
22963;SDS011;11648;49.306;6.934;2022-09-17T17:50:14;2.27;;;0.67;;
22963;SDS011;11648;49.306;6.934;2022-09-17T17:52:41;3.07;;;1.00;;
22963;SDS011;11648;49.306;6.934;2022-09-17T17:55:13;4.50;;;1.13;;
22963;SDS011;11648;49.306;6.934;2022-09-17T17:57:41;3.77;;;0.90;;
22963;SDS011;11648;49.306;6.934;2022-09-17T18:00:08;2.77;;;0.70;;
22963;SDS011;11648;49.306;6.934;2022-09-17T18:02:40;3.53;;;0.90;;
22963;SDS011;11648;49.306;6.934;2022-09-17T18:05:07;5.47;;;1.07;;
22963;SDS011;11648;49.306;6.934;2022-09-17T18:07:34;5.23;;;1.53;;
22963;SDS011;11648;49.306;6.934;2022-09-17T18:10:01;4.93;;;1.10;;
22963;SDS011;11648;49.306;6.934;2022-09-17T18:12:28;6.70;;;1.20;;
22963;SDS011;11648;49.306;6.934;2022-09-17T18:14:55;8.27;;;1.40;;
22963;SDS011;11648;49.306;6.934;2022-09-17T18:17:22;9.07;;;2.90;;
22963;SDS011;11648;49.306;6.934;2022-09-17T18:19:48;6.07;;;1.73;;
22963;SDS011;11648;49.306;6.934;2022-09-17T18:22:16;4.93;;;1.10;;
22963;SDS011;11648;49.306;6.934;2022-09-17T18:24:43;4.37;;;1.30;;
22963;SDS011;11648;49.306;6.934;2022-09-17T18:27:10;5.10;;;1.20;;
22963;SDS011;11648;49.306;6.934;2022-09-17T18:29:37;4.07;;;0.97;;
22963;SDS011;11648;49.306;6.934;2022-09-17T18:32:04;7.83;;;0.97;;
22963;SDS011;11648;49.306;6.934;2022-09-17T18:34:31;3.53;;;1.00;;
22963;SDS011;11648;49.306;6.934;2022-09-17T18:36:58;4.93;;;1.40;;
22963;SDS011;11648;49.306;6.934;2022-09-17T18:39:25;5.67;;;1.10;;
22963;SDS011;11648;49.306;6.934;2022-09-17T18:42:11;4.57;;;0.97;;
22963;SDS011;11648;49.306;6.934;2022-09-17T18:44:38;5.43;;;0.90;;
22963;SDS011;11648;49.306;6.934;2022-09-17T18:47:05;7.53;;;1.20;;
22963;SDS011;11648;49.306;6.934;2022-09-17T18:49:32;4.97;;;0.90;;
22963;SDS011;11648;49.306;6.934;2022-09-17T18:51:58;4.60;;;1.30;;
22963;SDS011;11648;49.306;6.934;2022-09-17T18:54:25;4.47;;;1.00;;
22963;SDS011;11648;49.306;6.934;2022-09-17T18:56:52;6.03;;;0.90;;
22963;SDS011;11648;49.306;6.934;2022-09-17T18:59:19;7.40;;;1.03;;
22963;SDS011;11648;49.306;6.934;2022-09-17T19:01:45;6.10;;;0.90;;
22963;SDS011;11648;49.306;6.934;2022-09-17T19:04:12;4.60;;;0.70;;
22963;SDS011;11648;49.306;6.934;2022-09-17T19:06:39;4.40;;;0.90;;
22963;SDS011;11648;49.306;6.934;2022-09-17T19:09:06;2.93;;;0.67;;
22963;SDS011;11648;49.306;6.934;2022-09-17T19:11:33;3.93;;;0.70;;
22963;SDS011;11648;49.306;6.934;2022-09-17T19:14:01;4.97;;;0.87;;
22963;SDS011;11648;49.306;6.934;2022-09-17T19:16:27;1.70;;;0.60;;